createdAt,value
2022-10-11T00:02:15.670Z,15.90
2022-10-11T00:05:01.268Z,15.90
2022-10-11T00:07:46.759Z,15.90
2022-10-11T00:10:33.398Z,15.80
2022-10-11T00:13:18.738Z,15.80
2022-10-11T00:16:10.093Z,15.80
2022-10-11T00:18:55.843Z,15.80
2022-10-11T00:21:41.827Z,15.80
2022-10-11T00:24:27.120Z,15.80
2022-10-11T00:27:12.840Z,15.80
2022-10-11T00:29:58.851Z,15.80
2022-10-11T00:32:44.270Z,15.80
2022-10-11T00:35:30.026Z,15.80
2022-10-11T00:38:17.875Z,15.70
2022-10-11T00:41:03.407Z,15.70
2022-10-11T00:44:07.844Z,15.70
2022-10-11T00:47:03.202Z,15.60
2022-10-11T00:49:56.724Z,15.70
2022-10-11T00:52:45.631Z,15.60
2022-10-11T00:55:35.590Z,15.60
2022-10-11T00:58:22.992Z,15.60
2022-10-11T01:01:08.753Z,15.50
2022-10-11T01:03:55.260Z,15.60
2022-10-11T01:06:41.999Z,15.60
2022-10-11T01:09:28.440Z,15.60
2022-10-11T01:12:23.408Z,15.50
2022-10-11T01:15:22.888Z,15.50
2022-10-11T01:18:17.767Z,15.50
2022-10-11T01:21:38.707Z,15.50
2022-10-11T01:25:12.083Z,15.50
2022-10-11T01:28:28.114Z,15.50
2022-10-11T01:31:31.769Z,15.40
2022-10-11T01:34:41.575Z,15.40
2022-10-11T01:37:53.278Z,15.40
2022-10-11T01:41:06.627Z,15.40
2022-10-11T01:43:55.968Z,15.40
2022-10-11T01:46:41.758Z,15.30
2022-10-11T01:49:27.595Z,15.40
2022-10-11T01:52:13.526Z,15.30
2022-10-11T01:55:10.393Z,15.30
2022-10-11T01:58:22.607Z,15.30
2022-10-11T02:01:11.223Z,15.30
2022-10-11T02:04:16.437Z,15.30
2022-10-11T02:07:22.106Z,15.20
2022-10-11T02:10:30.769Z,15.20
2022-10-11T02:13:23.028Z,15.10
2022-10-11T02:16:13.170Z,15.10
2022-10-11T02:19:01.503Z,15.10
2022-10-11T02:21:53.551Z,15.10
2022-10-11T02:24:42.935Z,15.10
2022-10-11T02:27:33.899Z,15.10
2022-10-11T02:30:19.508Z,15.10
2022-10-11T02:33:08.665Z,15.00
2022-10-11T02:36:03.978Z,15.00
2022-10-11T02:38:54.543Z,15.00
2022-10-11T02:41:42.997Z,15.00
2022-10-11T02:44:46.622Z,14.90
2022-10-11T02:47:33.071Z,14.90
2022-10-11T02:50:18.882Z,14.90
2022-10-11T02:53:04.824Z,14.90
2022-10-11T02:55:52.963Z,14.90
2022-10-11T02:58:38.448Z,14.90
2022-10-11T03:01:24.469Z,14.90
2022-10-11T03:04:10.474Z,14.80
2022-10-11T03:06:56.049Z,14.90
2022-10-11T03:09:42.018Z,14.80
2022-10-11T03:12:27.560Z,14.80
2022-10-11T03:15:13.276Z,14.80
2022-10-11T03:17:58.913Z,14.80
2022-10-11T03:20:44.798Z,14.80
2022-10-11T03:23:30.575Z,14.80
2022-10-11T03:26:16.333Z,14.80
2022-10-11T03:29:02.243Z,14.80
2022-10-11T03:31:48.364Z,14.70
2022-10-11T03:34:33.694Z,14.70
2022-10-11T03:37:19.533Z,14.70
2022-10-11T03:40:06.568Z,14.70
2022-10-11T03:42:52.294Z,14.70
2022-10-11T03:45:38.110Z,14.60
2022-10-11T03:48:23.726Z,14.60
2022-10-11T03:51:09.142Z,14.60
2022-10-11T03:53:54.998Z,14.60
2022-10-11T03:56:40.839Z,14.60
2022-10-11T03:59:26.355Z,14.60
2022-10-11T04:02:12.219Z,14.60
2022-10-11T04:04:57.675Z,14.60
2022-10-11T04:07:43.522Z,14.50
2022-10-11T04:10:31.087Z,14.50
2022-10-11T04:13:16.986Z,14.50
2022-10-11T04:16:02.918Z,14.50
2022-10-11T04:18:48.496Z,14.50
2022-10-11T04:21:34.318Z,14.50
2022-10-11T04:24:20.003Z,14.50
2022-10-11T04:27:06.235Z,14.50
2022-10-11T04:29:51.965Z,14.50
2022-10-11T04:32:37.569Z,14.50
2022-10-11T04:35:23.297Z,14.50
2022-10-11T04:38:09.999Z,14.40
2022-10-11T04:40:56.007Z,14.40
2022-10-11T04:43:42.691Z,14.40
2022-10-11T04:46:29.260Z,14.40
2022-10-11T04:49:14.992Z,14.40
2022-10-11T04:52:00.767Z,14.40
2022-10-11T04:54:47.735Z,14.40
2022-10-11T04:57:33.399Z,14.40
2022-10-11T05:00:19.247Z,14.40
2022-10-11T05:03:05.178Z,14.40
2022-10-11T05:05:50.916Z,14.40
2022-10-11T05:08:36.559Z,14.40
2022-10-11T05:11:24.171Z,14.30
2022-10-11T05:14:10.052Z,14.30
2022-10-11T05:16:55.842Z,14.30
2022-10-11T05:19:41.485Z,14.30
2022-10-11T05:22:27.154Z,14.30
2022-10-11T05:25:12.965Z,14.30
2022-10-11T05:27:58.610Z,14.20
2022-10-11T05:30:44.267Z,14.20
2022-10-11T05:33:31.014Z,14.20
2022-10-11T05:36:16.875Z,14.20
2022-10-11T05:39:02.677Z,14.20
2022-10-11T05:41:48.228Z,14.20
2022-10-11T05:44:34.183Z,14.20
2022-10-11T05:47:19.594Z,14.20
2022-10-11T05:50:05.781Z,14.20
2022-10-11T05:52:51.506Z,14.20
2022-10-11T05:55:40.279Z,14.20
2022-10-11T05:58:26.307Z,14.30
2022-10-11T06:01:26.081Z,14.30
2022-10-11T06:04:11.857Z,14.30
2022-10-11T06:06:57.603Z,14.40
2022-10-11T06:09:43.060Z,14.40
2022-10-11T06:12:32.045Z,14.80
2022-10-11T06:15:18.148Z,15.40
2022-10-11T06:18:03.684Z,16.10
2022-10-11T06:20:49.245Z,16.70
2022-10-11T06:23:34.954Z,17.40
2022-10-11T06:26:21.029Z,17.80
2022-10-11T06:29:07.105Z,18.40
2022-10-11T06:31:52.856Z,18.70
2022-10-11T06:34:38.280Z,19.20
2022-10-11T06:37:24.114Z,19.40
2022-10-11T06:40:09.839Z,19.30
2022-10-11T06:42:55.639Z,19.40
2022-10-11T06:45:41.662Z,19.50
2022-10-11T06:48:27.718Z,19.20
2022-10-11T06:51:16.147Z,18.60
2022-10-11T06:54:02.470Z,18.40
2022-10-11T06:56:48.064Z,18.40
2022-10-11T06:59:33.949Z,18.50
2022-10-11T07:02:19.709Z,18.40
2022-10-11T07:05:05.977Z,18.50
2022-10-11T07:07:51.473Z,18.50
2022-10-11T07:10:37.272Z,18.40
2022-10-11T07:13:24.442Z,18.40
2022-10-11T07:16:12.533Z,18.30
2022-10-11T07:19:01.296Z,18.20
2022-10-11T07:21:47.176Z,18.40
2022-10-11T07:24:33.153Z,18.40
2022-10-11T07:27:22.108Z,18.40
2022-10-11T07:30:08.107Z,18.40
2022-10-11T07:32:53.846Z,18.60
2022-10-11T07:35:39.729Z,18.60
2022-10-11T07:38:25.454Z,18.80
2022-10-11T07:41:11.805Z,18.80
2022-10-11T07:43:57.722Z,18.60
2022-10-11T07:46:43.222Z,18.80
2022-10-11T07:49:28.860Z,18.90
2022-10-11T07:52:14.590Z,19.00
2022-10-11T07:55:00.233Z,19.00
2022-10-11T07:57:46.036Z,19.20
2022-10-11T08:00:32.079Z,19.20
2022-10-11T08:03:17.867Z,19.20
2022-10-11T08:06:06.993Z,19.20
2022-10-11T08:08:53.169Z,19.10
2022-10-11T08:11:39.295Z,19.30
2022-10-11T08:14:24.829Z,19.30
2022-10-11T08:17:10.501Z,19.40
2022-10-11T08:19:58.019Z,19.40
2022-10-11T08:22:43.715Z,19.40
2022-10-11T08:25:29.212Z,19.40
2022-10-11T08:28:17.656Z,19.30
2022-10-11T08:31:04.415Z,19.30
2022-10-11T08:33:50.769Z,19.40
2022-10-11T08:36:37.736Z,19.50
2022-10-11T08:39:23.789Z,19.60
2022-10-11T08:42:43.085Z,19.80
2022-10-11T08:45:50.478Z,19.90
2022-10-11T08:48:45.781Z,19.80
2022-10-11T08:51:43.330Z,19.90
2022-10-11T08:54:38.561Z,19.90
2022-10-11T08:57:27.361Z,19.70
2022-10-11T09:00:17.065Z,19.80
2022-10-11T09:03:14.945Z,19.80
2022-10-11T09:06:17.735Z,19.80
2022-10-11T09:09:25.302Z,19.70
2022-10-11T09:12:13.867Z,19.60
2022-10-11T09:15:10.093Z,19.60
2022-10-11T09:18:22.084Z,19.50
2022-10-11T09:21:19.931Z,19.50
2022-10-11T09:24:20.898Z,19.50
2022-10-11T09:27:57.316Z,19.50
2022-10-11T09:30:36.004Z,19.60
2022-10-11T09:33:28.978Z,19.50
2022-10-11T09:36:20.363Z,19.50
2022-10-11T09:39:27.279Z,19.50
2022-10-11T09:42:13.139Z,19.60
2022-10-11T09:45:00.950Z,19.70
2022-10-11T09:47:49.656Z,19.80
2022-10-11T09:50:35.479Z,19.60
2022-10-11T09:53:40.870Z,19.60
2022-10-11T09:56:29.637Z,19.70
2022-10-11T09:59:32.315Z,19.80
2022-10-11T10:02:21.515Z,19.80
2022-10-11T10:05:07.106Z,19.80
2022-10-11T10:08:11.243Z,19.90
2022-10-11T10:10:59.584Z,20.00
2022-10-11T10:13:55.991Z,20.10
2022-10-11T10:16:41.623Z,20.20
2022-10-11T10:19:27.498Z,20.20
2022-10-11T10:22:27.377Z,20.10
2022-10-11T10:25:37.493Z,20.20
2022-10-11T10:28:27.583Z,20.30
2022-10-11T10:31:23.174Z,20.40
2022-10-11T10:34:16.475Z,20.50
2022-10-11T10:37:21.076Z,20.70
2022-10-11T10:40:31.171Z,20.90
2022-10-11T10:43:20.211Z,20.90
2022-10-11T10:46:24.028Z,20.90
2022-10-11T10:52:47.857Z,21.10
2022-10-11T10:55:45.974Z,21.10
2022-10-11T10:58:57.383Z,21.20
2022-10-11T11:02:06.774Z,21.30
2022-10-11T11:05:34.413Z,21.40
2022-10-11T11:08:52.535Z,21.50
2022-10-11T11:11:59.224Z,21.70
2022-10-11T11:15:00.051Z,21.70
2022-10-11T11:17:58.487Z,21.80
2022-10-11T11:20:47.103Z,21.80
2022-10-11T11:24:04.663Z,21.70
2022-10-11T11:27:01.726Z,21.70
2022-10-11T11:30:13.851Z,21.70
2022-10-11T11:33:02.708Z,21.70
2022-10-11T11:35:52.925Z,21.70
2022-10-11T11:38:42.195Z,21.80
2022-10-11T11:41:39.686Z,21.90
2022-10-11T11:44:34.659Z,21.90
2022-10-11T11:47:31.337Z,22.00
2022-10-11T11:50:23.215Z,21.90
2022-10-11T11:53:24.778Z,21.90
2022-10-11T11:56:38.397Z,22.00
2022-10-11T11:59:46.819Z,22.00
2022-10-11T12:02:50.360Z,22.00
2022-10-11T12:06:06.138Z,22.00
2022-10-11T12:09:17.519Z,22.10
2022-10-11T12:12:08.623Z,22.10
2022-10-11T12:15:03.407Z,22.20
2022-10-11T12:17:55.898Z,22.10
2022-10-11T12:20:43.127Z,22.10
2022-10-11T12:23:28.928Z,22.10
2022-10-11T12:26:29.822Z,22.10
2022-10-11T12:29:18.629Z,22.00
2022-10-11T12:32:04.213Z,22.10
2022-10-11T12:34:49.812Z,22.10
2022-10-11T12:37:35.519Z,22.10
2022-10-11T12:40:42.993Z,22.10
2022-10-11T12:44:18.387Z,22.00
2022-10-11T12:47:23.385Z,22.10
2022-10-11T12:50:35.176Z,22.10
2022-10-11T12:53:27.391Z,22.10
2022-10-11T12:56:25.884Z,22.10
2022-10-11T12:59:19.438Z,22.20
2022-10-11T13:02:20.810Z,22.20
2022-10-11T13:05:24.233Z,22.10
2022-10-11T13:08:13.744Z,22.10
2022-10-11T13:11:04.415Z,22.00
2022-10-11T13:14:32.159Z,22.00
2022-10-11T13:17:48.852Z,22.00
2022-10-11T13:20:37.615Z,22.00
2022-10-11T13:23:35.745Z,22.00
2022-10-11T13:26:21.803Z,22.00
2022-10-11T13:29:32.995Z,22.00
2022-10-11T13:32:23.834Z,22.00
2022-10-11T13:35:38.131Z,22.00
2022-10-11T13:38:27.880Z,22.00
2022-10-11T13:41:13.658Z,22.10
2022-10-11T13:44:00.353Z,22.20
2022-10-11T13:46:46.262Z,22.20
2022-10-11T13:49:37.710Z,22.20
2022-10-11T13:52:24.702Z,22.20
2022-10-11T13:55:24.222Z,22.20
2022-10-11T13:58:23.292Z,22.20
2022-10-11T14:01:22.272Z,22.20
2022-10-11T14:04:10.964Z,22.10
2022-10-11T14:07:00.844Z,22.10
2022-10-11T14:09:48.759Z,22.00
2022-10-11T14:12:39.767Z,22.10
2022-10-11T14:15:28.623Z,22.10
2022-10-11T14:18:37.102Z,22.10
2022-10-11T14:22:00.312Z,22.10
2022-10-11T14:24:48.876Z,22.10
2022-10-11T14:27:34.793Z,22.10
2022-10-11T14:30:26.057Z,22.00
2022-10-11T14:33:12.955Z,22.00
2022-10-11T14:35:58.756Z,22.00
2022-10-11T14:38:44.389Z,22.00
2022-10-11T14:41:30.216Z,22.00
2022-10-11T14:44:19.627Z,22.00
2022-10-11T14:47:06.771Z,21.90
2022-10-11T14:49:52.371Z,21.90
2022-10-11T14:52:37.965Z,21.90
2022-10-11T14:55:24.440Z,21.80
2022-10-11T14:58:13.423Z,21.90
2022-10-11T15:00:58.826Z,21.90
2022-10-11T15:03:44.710Z,21.80
2022-10-11T15:06:33.863Z,21.80
2022-10-11T15:09:23.763Z,21.80
2022-10-11T15:12:09.524Z,21.80
2022-10-11T15:14:55.491Z,21.70
2022-10-11T15:17:40.955Z,21.70
2022-10-11T15:20:36.390Z,21.70
2022-10-11T15:23:22.598Z,21.60
2022-10-11T15:26:13.290Z,21.60
2022-10-11T15:28:59.684Z,21.60
2022-10-11T15:31:46.246Z,21.50
2022-10-11T15:34:31.919Z,21.50
2022-10-11T15:37:17.715Z,21.40
2022-10-11T15:40:24.591Z,21.40
2022-10-11T15:43:10.348Z,21.40
2022-10-11T15:45:57.248Z,21.30
2022-10-11T15:48:43.149Z,21.30
2022-10-11T15:51:28.900Z,21.30
2022-10-11T15:54:14.440Z,21.20
2022-10-11T15:57:00.228Z,21.20
2022-10-11T15:59:45.883Z,21.20
2022-10-11T16:02:31.779Z,21.10
2022-10-11T16:05:23.224Z,21.10
2022-10-11T16:08:09.672Z,21.10
2022-10-11T16:10:55.751Z,21.00
2022-10-11T16:13:41.456Z,21.00
2022-10-11T16:16:27.212Z,20.90
2022-10-11T16:19:13.236Z,20.90
2022-10-11T16:21:58.688Z,20.80
2022-10-11T16:24:44.289Z,20.70
2022-10-11T16:27:30.172Z,20.70
2022-10-11T16:30:17.310Z,20.60
2022-10-11T16:33:03.165Z,20.50
2022-10-11T16:35:48.800Z,20.50
2022-10-11T16:38:34.403Z,20.40
2022-10-11T16:41:20.034Z,20.30
2022-10-11T16:44:06.198Z,20.20
2022-10-11T16:46:51.992Z,20.10
2022-10-11T16:49:38.486Z,20.00
2022-10-11T16:52:24.167Z,20.00
2022-10-11T16:55:10.342Z,19.90
2022-10-11T16:57:55.987Z,19.80
2022-10-11T17:00:44.975Z,19.70
2022-10-11T17:03:30.622Z,19.70
2022-10-11T17:06:16.465Z,19.60
2022-10-11T17:09:03.082Z,19.50
2022-10-11T17:11:49.165Z,19.40
2022-10-11T17:14:35.523Z,19.40
2022-10-11T17:17:21.540Z,19.40
2022-10-11T17:20:07.369Z,19.30
2022-10-11T17:22:53.012Z,19.20
2022-10-11T17:25:47.032Z,19.20
2022-10-11T17:28:35.192Z,19.10
2022-10-11T17:31:21.459Z,19.10
2022-10-11T17:34:06.985Z,19.00
2022-10-11T17:39:52.800Z,19.00
2022-10-11T17:42:38.690Z,18.80
2022-10-11T17:45:24.428Z,18.80
2022-10-11T17:48:10.138Z,18.80
2022-10-11T17:50:55.824Z,18.70
2022-10-11T17:53:41.898Z,18.60
2022-10-11T17:56:32.437Z,18.60
2022-10-11T17:59:21.773Z,18.50
2022-10-11T18:02:09.368Z,18.50
2022-10-11T18:04:54.837Z,18.40
2022-10-11T18:07:40.822Z,18.30
2022-10-11T18:10:27.479Z,18.30
2022-10-11T18:13:15.332Z,18.30
2022-10-11T18:16:01.135Z,18.20
2022-10-11T18:18:47.155Z,18.20
2022-10-11T18:21:34.567Z,18.10
2022-10-11T18:24:20.582Z,18.10
2022-10-11T18:27:06.375Z,18.10
2022-10-11T18:29:51.841Z,18.00
2022-10-11T18:32:37.783Z,18.00
2022-10-11T18:35:23.334Z,17.90
2022-10-11T18:38:09.137Z,17.90
2022-10-11T18:40:54.735Z,17.80
2022-10-11T18:43:40.854Z,17.80
2022-10-11T18:46:27.054Z,17.80
2022-10-11T18:49:13.784Z,17.70
2022-10-11T18:51:59.508Z,17.70
2022-10-11T18:54:45.224Z,17.70
2022-10-11T18:57:31.206Z,17.60
2022-10-11T19:00:39.693Z,17.60
2022-10-11T19:03:22.376Z,17.60
2022-10-11T19:06:17.223Z,17.50
2022-10-11T19:09:07.910Z,17.50
2022-10-11T19:11:56.051Z,17.50
2022-10-11T19:14:42.451Z,17.40
2022-10-11T19:17:27.964Z,17.40
2022-10-11T19:20:13.639Z,17.30
2022-10-11T19:22:59.082Z,17.40
2022-10-11T19:25:44.690Z,17.40
2022-10-11T19:28:30.782Z,17.30
2022-10-11T19:31:17.085Z,17.30
2022-10-11T19:34:03.458Z,17.30
2022-10-11T19:36:55.510Z,17.20
2022-10-11T19:39:41.550Z,17.20
2022-10-11T19:42:26.943Z,17.20
2022-10-11T19:45:13.069Z,17.10
2022-10-11T19:47:58.871Z,17.10
2022-10-11T19:50:45.275Z,17.10
2022-10-11T19:53:31.777Z,17.10
2022-10-11T19:56:18.506Z,17.00
2022-10-11T19:59:06.407Z,17.00
2022-10-11T20:01:53.222Z,17.00
2022-10-11T20:04:51.964Z,16.90
2022-10-11T20:07:38.866Z,16.90
2022-10-11T20:10:25.277Z,16.90
2022-10-11T20:13:12.100Z,16.80
2022-10-11T20:15:59.067Z,16.80
2022-10-11T20:18:45.707Z,16.80
2022-10-11T20:21:31.323Z,16.70
2022-10-11T20:24:17.151Z,16.80
2022-10-11T20:27:04.637Z,16.70
2022-10-11T20:29:50.122Z,16.70
2022-10-11T20:32:36.863Z,16.70
2022-10-11T20:35:22.291Z,16.70
2022-10-11T20:38:08.035Z,16.60
2022-10-11T20:40:53.846Z,16.60
2022-10-11T20:43:42.561Z,16.60
2022-10-11T20:46:31.495Z,16.60
2022-10-11T20:49:20.042Z,16.60
2022-10-11T20:52:05.796Z,16.60
2022-10-11T20:54:51.625Z,16.50
2022-10-11T20:57:37.168Z,16.50
2022-10-11T21:00:23.171Z,16.50
2022-10-11T21:03:09.317Z,16.50
2022-10-11T21:06:01.202Z,16.50
2022-10-11T21:08:47.254Z,16.50
2022-10-11T21:11:33.932Z,16.40
2022-10-11T21:14:19.676Z,16.40
2022-10-11T21:17:05.306Z,16.40
2022-10-11T21:19:50.815Z,16.30
2022-10-11T21:22:37.089Z,16.30
2022-10-11T21:25:23.067Z,16.30
2022-10-11T21:28:08.501Z,16.30
2022-10-11T21:30:54.155Z,16.20
2022-10-11T21:33:41.095Z,16.20
2022-10-11T21:36:26.541Z,16.20
2022-10-11T21:39:12.375Z,16.10
2022-10-11T21:41:58.028Z,16.10
2022-10-11T21:44:43.855Z,16.20
2022-10-11T21:47:30.743Z,16.10
2022-10-11T21:50:16.931Z,16.10
2022-10-11T21:53:02.521Z,16.10
2022-10-11T21:55:48.384Z,16.10
2022-10-11T21:58:34.087Z,16.10
2022-10-11T22:01:20.714Z,16.10
2022-10-11T22:04:09.919Z,16.00
2022-10-11T22:06:55.461Z,16.10
2022-10-11T22:09:40.962Z,16.00
2022-10-11T22:12:26.732Z,16.00
2022-10-11T22:15:12.620Z,16.00
2022-10-11T22:17:58.004Z,16.00
2022-10-11T22:20:44.078Z,15.90
2022-10-11T22:23:29.887Z,15.90
2022-10-11T22:26:18.677Z,15.90
2022-10-11T22:29:04.657Z,15.80
2022-10-11T22:31:50.212Z,15.80
2022-10-11T22:34:35.958Z,15.70
2022-10-11T22:37:21.406Z,15.80
2022-10-11T22:40:07.816Z,15.70
2022-10-11T22:42:53.350Z,15.70
2022-10-11T22:45:39.282Z,15.70
2022-10-11T22:48:24.917Z,15.70
2022-10-11T22:51:10.383Z,15.70
2022-10-11T22:53:55.780Z,15.70
2022-10-11T22:56:41.499Z,15.60
2022-10-11T22:59:27.294Z,15.60
2022-10-11T23:02:12.626Z,15.60
2022-10-11T23:04:58.407Z,15.60
2022-10-11T23:07:46.190Z,15.60
2022-10-11T23:10:31.885Z,15.60
2022-10-11T23:13:17.975Z,15.60
2022-10-11T23:16:11.366Z,15.50
2022-10-11T23:18:56.844Z,15.50
2022-10-11T23:21:42.570Z,15.50
2022-10-11T23:24:28.405Z,15.40
2022-10-11T23:27:14.375Z,15.40
2022-10-11T23:29:59.857Z,15.30
2022-10-11T23:32:45.891Z,15.30
2022-10-11T23:35:31.251Z,15.20
2022-10-11T23:38:17.124Z,15.20
2022-10-11T23:41:02.606Z,15.20
2022-10-11T23:43:48.160Z,15.20
2022-10-11T23:46:33.913Z,15.10
2022-10-11T23:49:19.499Z,15.10
2022-10-11T23:52:05.480Z,15.10
2022-10-11T23:54:50.919Z,15.00
2022-10-11T23:57:36.784Z,15.00
